Time;durP1;ratioP1;P1;durP2;ratioP2;P2;SDS_P1;SDS_P2;PMS_P1;PMS_P2;Temp;Humidity;BMP_temperature;BMP_pressure;BME280_temperature;BME280_humidity;BME280_pressure;Samples;Min_cycle;Max_cycle;Signal;HPM_P1;HPM_P2
2023/12/09 00:01:56;;;;;;;254.37;32.27;;;;;;;;;;5031076;28;20032;-69
2023/12/09 00:04:21;;;;;;;246.20;31.00;;;;;;;;;;5031717;28;20021;-69
2023/12/09 00:06:47;;;;;;;230.33;29.90;;;;;;;;;;5030717;28;20363;-70
2023/12/09 00:09:13;;;;;;;249.23;33.33;;;;;;;;;;5035471;28;20075;-71
2023/12/09 00:11:38;;;;;;;243.33;30.60;;;;;;;;;;5034807;28;20703;-69
2023/12/09 00:14:03;;;;;;;255.53;31.27;;;;;;;;;;5030772;28;20036;-69
2023/12/09 00:16:29;;;;;;;227.23;33.13;;;;;;;;;;5028913;28;20095;-72
2023/12/09 00:18:54;;;;;;;254.87;31.47;;;;;;;;;;5032830;28;20068;-72
2023/12/09 00:21:19;;;;;;;223.53;31.70;;;;;;;;;;5036950;28;20040;-71
2023/12/09 00:23:45;;;;;;;241.73;33.33;;;;;;;;;;5027491;28;20026;-71
2023/12/09 00:26:10;;;;;;;227.17;32.47;;;;;;;;;;5032123;28;20470;-73
2023/12/09 00:28:35;;;;;;;243.93;31.97;;;;;;;;;;5035922;28;20052;-71
2023/12/09 00:31:00;;;;;;;243.07;32.37;;;;;;;;;;5039956;28;20159;-75
2023/12/09 00:33:26;;;;;;;234.87;31.60;;;;;;;;;;5038431;28;20036;-73
2023/12/09 00:35:51;;;;;;;244.57;32.47;;;;;;;;;;5018624;28;20676;-70
2023/12/09 00:38:16;;;;;;;248.10;31.23;;;;;;;;;;5041237;28;20736;-72
2023/12/09 00:40:41;;;;;;;218.83;32.00;;;;;;;;;;5038210;28;20033;-74
2023/12/09 00:43:07;;;;;;;233.73;34.00;;;;;;;;;;5038789;28;20055;-74
2023/12/09 00:45:32;;;;;;;229.60;32.87;;;;;;;;;;5035864;28;20033;-74
2023/12/09 00:47:59;;;;;;;242.37;34.13;;;;;;;;;;5038932;28;20025;-73
2023/12/09 00:50:24;;;;;;;226.17;32.10;;;;;;;;;;5038242;28;20029;-74
2023/12/09 00:52:50;;;;;;;251.77;33.13;;;;;;;;;;5036943;28;20036;-74
2023/12/09 00:55:15;;;;;;;229.50;33.93;;;;;;;;;;5037902;28;20033;-74
2023/12/09 00:57:40;;;;;;;219.13;32.93;;;;;;;;;;5035403;28;20358;-71
2023/12/09 01:00:05;;;;;;;245.17;34.53;;;;;;;;;;5036149;28;20297;-73
2023/12/09 01:02:31;;;;;;;244.00;36.83;;;;;;;;;;5038723;28;20032;-74
2023/12/09 01:04:57;;;;;;;255.20;35.77;;;;;;;;;;5035051;28;20026;-74
2023/12/09 01:07:22;;;;;;;261.53;35.70;;;;;;;;;;5037058;28;20044;-72
2023/12/09 01:09:47;;;;;;;252.80;36.63;;;;;;;;;;5035846;28;20111;-71
2023/12/09 01:12:12;;;;;;;235.37;34.93;;;;;;;;;;5032934;28;20100;-74
2023/12/09 01:14:38;;;;;;;228.60;36.43;;;;;;;;;;5014628;28;20046;-75
2023/12/09 01:17:04;;;;;;;235.80;36.40;;;;;;;;;;5001329;28;20513;-75
2023/12/09 01:19:29;;;;;;;254.60;39.03;;;;;;;;;;5003047;28;20034;-74
2023/12/09 01:21:54;;;;;;;236.73;37.00;;;;;;;;;;4997450;28;20093;-73
2023/12/09 01:24:20;;;;;;;238.70;36.20;;;;;;;;;;5000511;28;20029;-73
2023/12/09 01:26:45;;;;;;;231.67;38.43;;;;;;;;;;5005233;28;20034;-72
2023/12/09 01:29:10;;;;;;;213.37;36.50;;;;;;;;;;5004017;28;20533;-71
2023/12/09 01:31:35;;;;;;;238.97;36.37;;;;;;;;;;5001542;28;20030;-73
2023/12/09 01:34:00;;;;;;;235.53;36.13;;;;;;;;;;4996996;28;20031;-73
2023/12/09 01:36:26;;;;;;;232.03;35.17;;;;;;;;;;5008949;28;20060;-70
2023/12/09 01:38:51;;;;;;;205.13;37.23;;;;;;;;;;5004141;28;20384;-68
2023/12/09 01:41:16;;;;;;;222.70;36.50;;;;;;;;;;5003454;28;20148;-72
2023/12/09 01:43:46;;;;;;;222.37;38.27;;;;;;;;;;5001178;28;20026;-73
2023/12/09 01:46:12;;;;;;;225.20;36.67;;;;;;;;;;5002450;28;20102;-72
2023/12/09 01:48:37;;;;;;;229.07;36.63;;;;;;;;;;4997347;28;20026;-72
2023/12/09 01:51:03;;;;;;;224.43;38.07;;;;;;;;;;5002849;28;20049;-71
2023/12/09 01:53:29;;;;;;;219.13;35.20;;;;;;;;;;5006586;28;20025;-72
2023/12/09 01:55:55;;;;;;;211.70;36.43;;;;;;;;;;5004485;28;20684;-72
2023/12/09 01:58:21;;;;;;;213.10;35.20;;;;;;;;;;5001740;28;20053;-71
2023/12/09 02:00:46;;;;;;;212.10;34.37;;;;;;;;;;4987274;28;20045;-69
2023/12/09 02:03:11;;;;;;;227.63;36.10;;;;;;;;;;5000652;28;20054;-70
2023/12/09 02:05:36;;;;;;;202.83;34.90;;;;;;;;;;5001756;28;20029;-70
2023/12/09 02:08:02;;;;;;;215.70;35.83;;;;;;;;;;5002254;28;20081;-71
2023/12/09 02:10:27;;;;;;;208.30;35.53;;;;;;;;;;5002276;28;20018;-70
2023/12/09 02:12:57;;;;;;;206.23;36.87;;;;;;;;;;5000452;28;20051;-65
2023/12/09 02:15:26;;;;;;;220.57;35.37;;;;;;;;;;4997753;28;20101;-66
2023/12/09 02:18:01;;;;;;;193.73;35.63;;;;;;;;;;4999554;28;20114;-64
2023/12/09 02:20:27;;;;;;;192.33;35.53;;;;;;;;;;4997734;28;20034;-66
2023/12/09 02:23:05;;;;;;;177.53;33.53;;;;;;;;;;4997577;28;20145;-66
2023/12/09 02:25:31;;;;;;;194.37;33.10;;;;;;;;;;4999031;28;20472;-64
2023/12/09 02:27:58;;;;;;;205.20;35.67;;;;;;;;;;5000126;28;20022;-64
2023/12/09 02:30:30;;;;;;;207.13;34.87;;;;;;;;;;4998200;28;20832;-65
2023/12/09 02:32:56;;;;;;;198.55;33.10;;;;;;;;;;4999803;28;20476;-64
2023/12/09 02:35:22;;;;;;;193.60;33.77;;;;;;;;;;5003723;28;20463;-65
2023/12/09 02:37:48;;;;;;;172.47;33.23;;;;;;;;;;5002300;28;20029;-65
2023/12/09 02:40:13;;;;;;;190.30;35.13;;;;;;;;;;5000365;28;20034;-64
2023/12/09 02:42:39;;;;;;;197.43;33.87;;;;;;;;;;4995737;28;20029;-65
2023/12/09 02:45:08;;;;;;;179.77;33.27;;;;;;;;;;5002335;28;20026;-64
2023/12/09 02:47:33;;;;;;;195.80;34.63;;;;;;;;;;5000764;28;20172;-65
2023/12/09 02:49:58;;;;;;;191.53;35.07;;;;;;;;;;5003223;28;20684;-64
2023/12/09 02:52:23;;;;;;;196.67;34.77;;;;;;;;;;5000242;28;20038;-65
2023/12/09 02:54:49;;;;;;;175.27;33.17;;;;;;;;;;5000220;28;20032;-64
2023/12/09 02:57:14;;;;;;;167.93;31.90;;;;;;;;;;5001071;28;20026;-65
2023/12/09 02:59:40;;;;;;;182.33;34.30;;;;;;;;;;4995638;28;20539;-66
2023/12/09 03:02:05;;;;;;;183.83;33.93;;;;;;;;;;5003519;28;20038;-66
2023/12/09 03:04:31;;;;;;;175.03;33.60;;;;;;;;;;5004198;28;20060;-66
2023/12/09 03:06:56;;;;;;;175.60;32.97;;;;;;;;;;4999979;28;20060;-65
2023/12/09 03:09:21;;;;;;;200.60;35.10;;;;;;;;;;4996963;28;20483;-65
2023/12/09 03:11:47;;;;;;;164.20;33.13;;;;;;;;;;4996422;28;20026;-65
2023/12/09 03:14:12;;;;;;;169.70;33.73;;;;;;;;;;4998772;28;20030;-64
2023/12/09 03:16:40;;;;;;;166.07;32.23;;;;;;;;;;5030651;28;20042;-66
2023/12/09 03:19:05;;;;;;;148.53;32.00;;;;;;;;;;5035510;28;20116;-65
2023/12/09 03:21:30;;;;;;;168.47;33.30;;;;;;;;;;5034978;28;20104;-64
2023/12/09 03:23:56;;;;;;;159.57;32.20;;;;;;;;;;5028661;28;20033;-66
2023/12/09 03:26:21;;;;;;;158.60;32.13;;;;;;;;;;5034890;28;20036;-66
2023/12/09 03:28:46;;;;;;;157.67;31.73;;;;;;;;;;5031296;28;20526;-65
2023/12/09 03:31:13;;;;;;;155.13;32.10;;;;;;;;;;5032467;28;20503;-64
2023/12/09 03:33:38;;;;;;;154.57;33.13;;;;;;;;;;5036436;28;20025;-64
2023/12/09 03:36:04;;;;;;;150.80;31.17;;;;;;;;;;5035774;28;20492;-64
2023/12/09 03:38:29;;;;;;;149.90;31.33;;;;;;;;;;5031333;28;20025;-65
2023/12/09 03:40:54;;;;;;;161.80;31.10;;;;;;;;;;5036387;28;20033;-66
2023/12/09 03:43:20;;;;;;;155.47;31.30;;;;;;;;;;5039390;28;20017;-66
2023/12/09 03:45:45;;;;;;;149.13;31.27;;;;;;;;;;5037113;28;20080;-65
2023/12/09 03:48:10;;;;;;;158.20;31.60;;;;;;;;;;5037553;28;20465;-66
2023/12/09 03:50:35;;;;;;;133.87;29.70;;;;;;;;;;5028281;28;20114;-64
2023/12/09 03:53:01;;;;;;;143.23;29.87;;;;;;;;;;5038580;28;20033;-64
2023/12/09 03:55:26;;;;;;;153.23;30.20;;;;;;;;;;5031063;28;20025;-66
2023/12/09 03:57:52;;;;;;;134.90;29.30;;;;;;;;;;5035210;28;20110;-65
2023/12/09 04:00:17;;;;;;;137.27;30.67;;;;;;;;;;5035285;28;20041;-65
2023/12/09 04:02:43;;;;;;;151.03;30.50;;;;;;;;;;5027431;28;20052;-64
2023/12/09 04:05:09;;;;;;;138.50;31.23;;;;;;;;;;5039505;28;20055;-64
2023/12/09 04:07:36;;;;;;;134.93;29.50;;;;;;;;;;5031489;28;20036;-65
2023/12/09 04:10:01;;;;;;;138.03;28.43;;;;;;;;;;5035500;28;20120;-65
2023/12/09 04:12:26;;;;;;;140.87;30.10;;;;;;;;;;5018983;28;20510;-65
2023/12/09 04:14:52;;;;;;;122.57;27.13;;;;;;;;;;5033133;28;20127;-64
2023/12/09 04:17:19;;;;;;;133.70;29.17;;;;;;;;;;5035166;28;20033;-64
2023/12/09 04:19:44;;;;;;;125.93;26.63;;;;;;;;;;5030649;28;20108;-65
2023/12/09 04:22:10;;;;;;;139.27;31.10;;;;;;;;;;5029401;28;20121;-64
2023/12/09 04:24:35;;;;;;;126.73;29.60;;;;;;;;;;5033021;28;20452;-65
2023/12/09 04:27:00;;;;;;;136.03;29.50;;;;;;;;;;5032823;28;20029;-65
2023/12/09 04:29:26;;;;;;;129.50;28.87;;;;;;;;;;5033633;28;20557;-65
2023/12/09 04:31:51;;;;;;;120.40;27.73;;;;;;;;;;5029929;28;20021;-71
2023/12/09 04:34:16;;;;;;;122.87;27.77;;;;;;;;;;5030751;28;20184;-72
2023/12/09 04:36:42;;;;;;;121.80;26.40;;;;;;;;;;5032214;28;20041;-72
2023/12/09 04:39:07;;;;;;;130.43;28.63;;;;;;;;;;5033802;28;20037;-69
2023/12/09 04:41:32;;;;;;;118.57;27.87;;;;;;;;;;5033272;28;20097;-72
2023/12/09 04:43:58;;;;;;;124.53;26.80;;;;;;;;;;5034204;28;20033;-70
2023/12/09 04:46:23;;;;;;;111.07;26.43;;;;;;;;;;5033573;28;20014;-69
2023/12/09 04:48:48;;;;;;;107.03;25.67;;;;;;;;;;5032606;28;20026;-73
2023/12/09 04:51:15;;;;;;;116.03;26.47;;;;;;;;;;5037662;28;20397;-73
2023/12/09 04:53:40;;;;;;;117.23;26.43;;;;;;;;;;5035254;28;20025;-72
2023/12/09 04:56:06;;;;;;;112.07;26.07;;;;;;;;;;5034284;28;20508;-72
2023/12/09 04:58:31;;;;;;;103.03;24.93;;;;;;;;;;5031206;28;20509;-71
2023/12/09 05:00:56;;;;;;;116.83;25.77;;;;;;;;;;5034874;28;20037;-70
2023/12/09 05:03:22;;;;;;;123.77;25.67;;;;;;;;;;5031882;28;20034;-72
2023/12/09 05:05:47;;;;;;;107.90;25.67;;;;;;;;;;5028658;28;20265;-73
2023/12/09 05:08:12;;;;;;;108.80;25.97;;;;;;;;;;5034520;28;20025;-73
2023/12/09 05:10:38;;;;;;;112.37;26.27;;;;;;;;;;5031563;28;20049;-72
2023/12/09 05:13:03;;;;;;;102.63;24.90;;;;;;;;;;5033235;28;20036;-69
2023/12/09 05:15:28;;;;;;;92.43;24.77;;;;;;;;;;5031846;28;20049;-71
2023/12/09 05:17:53;;;;;;;105.73;25.07;;;;;;;;;;5032944;28;20024;-72
2023/12/09 05:20:19;;;;;;;107.47;25.43;;;;;;;;;;5036250;28;20025;-72
2023/12/09 05:22:45;;;;;;;107.60;24.60;;;;;;;;;;5031484;28;20139;-72
2023/12/09 05:25:10;;;;;;;98.50;23.83;;;;;;;;;;5037366;28;20017;-72
2023/12/09 05:27:36;;;;;;;98.23;24.10;;;;;;;;;;5035161;28;20382;-72
2023/12/09 05:30:01;;;;;;;108.57;25.23;;;;;;;;;;5032872;28;20036;-69
2023/12/09 05:32:26;;;;;;;94.43;22.70;;;;;;;;;;5035598;28;20021;-73
2023/12/09 05:34:52;;;;;;;96.60;23.50;;;;;;;;;;5034143;28;20037;-74
2023/12/09 05:37:17;;;;;;;99.00;23.43;;;;;;;;;;5035414;28;20052;-72
2023/12/09 05:39:42;;;;;;;94.53;21.90;;;;;;;;;;5035950;28;20029;-73
2023/12/09 05:42:07;;;;;;;109.03;23.00;;;;;;;;;;5037960;28;20053;-73
2023/12/09 05:44:33;;;;;;;96.97;21.73;;;;;;;;;;5036993;28;20745;-69
2023/12/09 05:46:58;;;;;;;97.00;22.40;;;;;;;;;;5039949;28;20056;-69
2023/12/09 05:49:23;;;;;;;100.23;22.37;;;;;;;;;;5039063;28;20037;-72
2023/12/09 05:51:48;;;;;;;95.17;21.97;;;;;;;;;;5039919;28;20071;-73
2023/12/09 05:54:14;;;;;;;106.47;22.93;;;;;;;;;;5036722;28;20068;-71
2023/12/09 05:56:40;;;;;;;95.10;21.03;;;;;;;;;;5033402;28;20052;-70
2023/12/09 05:59:05;;;;;;;100.47;22.20;;;;;;;;;;5040280;28;20451;-70
2023/12/09 06:01:30;;;;;;;100.17;21.67;;;;;;;;;;5036739;28;20025;-72
2023/12/09 06:03:55;;;;;;;97.27;21.30;;;;;;;;;;5035125;28;20489;-74
2023/12/09 06:06:21;;;;;;;87.77;20.33;;;;;;;;;;5037612;28;20037;-72
2023/12/09 06:08:46;;;;;;;95.20;21.87;;;;;;;;;;5033338;28;20040;-73
2023/12/09 06:11:11;;;;;;;92.50;21.53;;;;;;;;;;5036589;28;20045;-71
2023/12/09 06:13:37;;;;;;;83.73;20.37;;;;;;;;;;5031229;28;20157;-67
2023/12/09 06:16:02;;;;;;;96.10;22.27;;;;;;;;;;5031965;28;20140;-69
2023/12/09 06:18:27;;;;;;;97.57;21.83;;;;;;;;;;5035063;28;20462;-71
2023/12/09 06:20:53;;;;;;;92.60;20.20;;;;;;;;;;5035631;28;20168;-73
2023/12/09 06:23:18;;;;;;;103.97;23.13;;;;;;;;;;5038367;28;20033;-72
2023/12/09 06:25:43;;;;;;;84.90;20.83;;;;;;;;;;5033069;28;20034;-72
2023/12/09 06:28:08;;;;;;;82.60;18.40;;;;;;;;;;5029164;28;20025;-71
2023/12/09 06:30:34;;;;;;;83.23;19.63;;;;;;;;;;5032577;28;20520;-69
2023/12/09 06:32:59;;;;;;;91.13;20.97;;;;;;;;;;5032670;28;20052;-72
2023/12/09 06:35:24;;;;;;;79.93;18.63;;;;;;;;;;5038199;28;20064;-73
2023/12/09 06:37:49;;;;;;;79.90;19.33;;;;;;;;;;5032314;28;20041;-72
2023/12/09 06:40:15;;;;;;;76.93;18.10;;;;;;;;;;5030046;28;20103;-71
2023/12/09 06:42:40;;;;;;;71.63;16.50;;;;;;;;;;5040127;28;20021;-69
2023/12/09 06:45:05;;;;;;;78.13;18.03;;;;;;;;;;5031860;28;20473;-70
2023/12/09 06:47:32;;;;;;;72.53;18.43;;;;;;;;;;5036271;28;20029;-72
2023/12/09 06:49:57;;;;;;;75.77;19.07;;;;;;;;;;5037983;28;20067;-71
2023/12/09 06:52:22;;;;;;;61.53;17.30;;;;;;;;;;5038854;28;20425;-74
2023/12/09 06:54:48;;;;;;;57.47;17.70;;;;;;;;;;5036169;28;20026;-72
2023/12/09 06:57:13;;;;;;;74.40;18.90;;;;;;;;;;5039518;28;20033;-71
2023/12/09 06:59:38;;;;;;;65.03;18.10;;;;;;;;;;5040041;28;20061;-69
2023/12/09 07:02:03;;;;;;;55.10;16.03;;;;;;;;;;5037040;28;20445;-73
2023/12/09 07:04:29;;;;;;;60.07;16.17;;;;;;;;;;5035580;28;20060;-71
2023/12/09 07:06:59;;;;;;;60.43;16.97;;;;;;;;;;5034206;28;20036;-73
2023/12/09 07:09:24;;;;;;;57.43;16.00;;;;;;;;;;5035547;28;20497;-72
2023/12/09 07:11:49;;;;;;;55.77;14.10;;;;;;;;;;5033949;28;20041;-69
2023/12/09 07:14:15;;;;;;;54.80;15.07;;;;;;;;;;5032536;28;20106;-70
2023/12/09 07:16:40;;;;;;;49.03;14.47;;;;;;;;;;5031685;28;20120;-73
2023/12/09 07:19:06;;;;;;;54.83;14.27;;;;;;;;;;5030893;28;20112;-70
2023/12/09 07:21:31;;;;;;;45.83;12.87;;;;;;;;;;5035725;28;20021;-75
2023/12/09 07:23:56;;;;;;;38.77;11.93;;;;;;;;;;5031584;28;20030;-71
2023/12/09 07:26:22;;;;;;;36.73;11.43;;;;;;;;;;5028551;28;20033;-71
2023/12/09 07:28:47;;;;;;;51.13;12.50;;;;;;;;;;5033512;28;20047;-72
2023/12/09 07:31:13;;;;;;;34.20;10.27;;;;;;;;;;5032431;28;20037;-71
2023/12/09 07:33:39;;;;;;;33.17;11.23;;;;;;;;;;5039800;28;20377;-69
2023/12/09 07:36:04;;;;;;;32.80;11.63;;;;;;;;;;5034374;28;20036;-72
2023/12/09 07:38:29;;;;;;;38.97;9.57;;;;;;;;;;5028654;28;20429;-75
2023/12/09 07:40:55;;;;;;;35.83;9.77;;;;;;;;;;5031101;28;20087;-73
2023/12/09 07:43:20;;;;;;;33.63;9.20;;;;;;;;;;5036167;28;20038;-71
2023/12/09 07:45:45;;;;;;;31.73;9.00;;;;;;;;;;5036444;28;20080;-70
2023/12/09 07:48:10;;;;;;;28.33;9.30;;;;;;;;;;5037647;28;20036;-70
2023/12/09 07:50:36;;;;;;;33.43;9.00;;;;;;;;;;5037548;28;20116;-69
2023/12/09 07:53:02;;;;;;;28.03;7.70;;;;;;;;;;5037730;28;20065;-72
2023/12/09 07:55:27;;;;;;;26.73;7.67;;;;;;;;;;5032706;28;20099;-73
2023/12/09 07:57:52;;;;;;;22.97;7.27;;;;;;;;;;5034658;28;20037;-72
2023/12/09 08:00:18;;;;;;;31.57;7.97;;;;;;;;;;5034890;28;20043;-71
2023/12/09 08:02:43;;;;;;;30.73;7.50;;;;;;;;;;5033406;28;20037;-71
2023/12/09 08:05:08;;;;;;;25.73;7.40;;;;;;;;;;5034429;28;20033;-69
2023/12/09 08:07:34;;;;;;;31.10;8.13;;;;;;;;;;5032357;28;20068;-69
2023/12/09 08:10:00;;;;;;;29.57;7.13;;;;;;;;;;5033501;28;20371;-72
2023/12/09 08:12:26;;;;;;;27.90;7.20;;;;;;;;;;5030984;28;20086;-73
2023/12/09 08:14:51;;;;;;;26.00;7.17;;;;;;;;;;5033810;28;20997;-71
2023/12/09 08:17:16;;;;;;;21.80;6.87;;;;;;;;;;5032966;28;20060;-72
2023/12/09 08:19:41;;;;;;;27.83;7.03;;;;;;;;;;5036898;28;20116;-69
2023/12/09 08:22:07;;;;;;;26.90;6.90;;;;;;;;;;5033581;28;20352;-71
2023/12/09 08:24:32;;;;;;;21.57;5.70;;;;;;;;;;5028643;28;20033;-70
2023/12/09 08:26:58;;;;;;;23.60;6.20;;;;;;;;;;5034046;28;20034;-73
2023/12/09 08:29:23;;;;;;;24.50;6.60;;;;;;;;;;5030365;28;20037;-70
2023/12/09 08:31:51;;;;;;;20.27;5.40;;;;;;;;;;5036821;28;20049;-70
2023/12/09 08:34:17;;;;;;;23.23;5.33;;;;;;;;;;5036708;28;20033;-68
2023/12/09 08:36:42;;;;;;;15.77;4.80;;;;;;;;;;5028518;28;20055;-70
2023/12/09 08:39:10;;;;;;;24.27;5.67;;;;;;;;;;5036297;28;20482;-70
2023/12/09 08:41:36;;;;;;;20.53;5.90;;;;;;;;;;5035025;28;20040;-70
2023/12/09 08:44:03;;;;;;;15.30;4.70;;;;;;;;;;5028084;28;20030;-69
2023/12/09 08:46:28;;;;;;;20.07;5.63;;;;;;;;;;5026451;28;20045;-68
2023/12/09 08:48:53;;;;;;;18.67;4.33;;;;;;;;;;5035803;28;20029;-69
2023/12/09 08:51:19;;;;;;;17.07;4.40;;;;;;;;;;5032514;28;20060;-70
2023/12/09 08:53:44;;;;;;;15.97;4.10;;;;;;;;;;5035394;28;20040;-71
2023/12/09 08:56:09;;;;;;;12.70;3.83;;;;;;;;;;5034385;28;20037;-67
2023/12/09 08:58:34;;;;;;;12.80;3.90;;;;;;;;;;5039802;28;20737;-70
2023/12/09 09:01:00;;;;;;;10.87;3.77;;;;;;;;;;5037607;28;20052;-69
2023/12/09 09:03:25;;;;;;;12.63;3.87;;;;;;;;;;5036711;28;20068;-69
2023/12/09 09:05:50;;;;;;;16.13;4.50;;;;;;;;;;5035476;28;20413;-69
2023/12/09 09:08:15;;;;;;;15.33;4.07;;;;;;;;;;5036161;28;20040;-70
2023/12/09 09:10:41;;;;;;;13.07;3.93;;;;;;;;;;5037834;28;20421;-68
2023/12/09 09:13:06;;;;;;;11.73;3.50;;;;;;;;;;5036679;28;20037;-67
2023/12/09 09:15:32;;;;;;;12.20;3.57;;;;;;;;;;5036446;28;20137;-66
2023/12/09 09:17:57;;;;;;;16.20;3.70;;;;;;;;;;5036317;28;20041;-71
2023/12/09 09:20:22;;;;;;;11.33;2.93;;;;;;;;;;5036156;28;20346;-69
2023/12/09 09:22:49;;;;;;;11.87;3.70;;;;;;;;;;5035079;28;20029;-67
2023/12/09 09:25:15;;;;;;;15.93;3.90;;;;;;;;;;5036657;28;20485;-69
2023/12/09 09:27:40;;;;;;;14.60;3.40;;;;;;;;;;5037987;28;20029;-67
2023/12/09 09:30:06;;;;;;;16.07;4.10;;;;;;;;;;5035874;28;20099;-67
2023/12/09 09:32:31;;;;;;;10.13;2.93;;;;;;;;;;5032649;28;20029;-67
2023/12/09 09:34:56;;;;;;;13.97;3.30;;;;;;;;;;5037204;28;20439;-68
2023/12/09 09:37:23;;;;;;;14.17;3.80;;;;;;;;;;5036479;28;20041;-69
2023/12/09 09:39:48;;;;;;;14.93;4.17;;;;;;;;;;5036010;28;20393;-69
2023/12/09 09:42:19;;;;;;;10.13;3.27;;;;;;;;;;5032301;28;20026;-68
2023/12/09 09:44:53;;;;;;;14.15;3.83;;;;;;;;;;5029592;28;20592;-68
2023/12/09 09:47:18;;;;;;;12.33;4.13;;;;;;;;;;5035704;28;20535;-66
2023/12/09 09:49:45;;;;;;;10.67;3.43;;;;;;;;;;5033690;28;20124;-68
2023/12/09 09:52:12;;;;;;;12.13;3.27;;;;;;;;;;5036141;28;20029;-67
2023/12/09 09:54:39;;;;;;;14.37;3.77;;;;;;;;;;5034516;28;20033;-67
2023/12/09 09:57:04;;;;;;;11.23;3.30;;;;;;;;;;5035419;28;20040;-67
2023/12/09 09:59:31;;;;;;;10.47;3.70;;;;;;;;;;5033932;28;20045;-67
2023/12/09 10:01:56;;;;;;;16.57;3.90;;;;;;;;;;5032507;28;20120;-67
2023/12/09 10:04:22;;;;;;;8.10;2.80;;;;;;;;;;5031366;28;20851;-66
2023/12/09 10:06:48;;;;;;;12.97;3.10;;;;;;;;;;5035592;28;20037;-67
2023/12/09 10:09:13;;;;;;;12.43;3.23;;;;;;;;;;5037528;28;20033;-65
2023/12/09 10:11:39;;;;;;;10.37;3.37;;;;;;;;;;5035049;28;20520;-66
2023/12/09 10:14:04;;;;;;;10.17;3.37;;;;;;;;;;5031760;28;20033;-66
2023/12/09 10:16:29;;;;;;;8.33;3.30;;;;;;;;;;5035688;28;20045;-67
2023/12/09 10:18:56;;;;;;;11.27;3.50;;;;;;;;;;5034137;28;20037;-66
2023/12/09 10:21:21;;;;;;;16.97;4.07;;;;;;;;;;5036678;28;20524;-66
2023/12/09 10:23:47;;;;;;;9.00;3.43;;;;;;;;;;5035586;28;20041;-63
2023/12/09 10:26:13;;;;;;;7.10;3.00;;;;;;;;;;5038256;28;20573;-64
2023/12/09 10:28:38;;;;;;;6.33;3.17;;;;;;;;;;5034092;28;20124;-64
2023/12/09 10:31:04;;;;;;;10.97;3.30;;;;;;;;;;5035469;28;20108;-63
2023/12/09 10:33:32;;;;;;;11.23;3.70;;;;;;;;;;5035387;28;20029;-64
2023/12/09 10:35:58;;;;;;;14.00;3.47;;;;;;;;;;5037570;28;20065;-64
2023/12/09 10:38:23;;;;;;;11.60;4.10;;;;;;;;;;5033122;28;20698;-63
2023/12/09 10:40:49;;;;;;;11.27;3.37;;;;;;;;;;5032066;28;20037;-65
2023/12/09 10:43:15;;;;;;;8.60;2.80;;;;;;;;;;5035328;28;20041;-63
2023/12/09 10:45:40;;;;;;;7.90;3.27;;;;;;;;;;5035046;28;20044;-64
2023/12/09 10:48:06;;;;;;;8.73;2.93;;;;;;;;;;5035807;28;20505;-63
2023/12/09 10:50:32;;;;;;;8.13;2.80;;;;;;;;;;5033362;28;20072;-63
2023/12/09 10:52:57;;;;;;;6.57;3.10;;;;;;;;;;5032220;28;20053;-63
2023/12/09 10:55:23;;;;;;;11.00;3.10;;;;;;;;;;5037504;28;20073;-63
2023/12/09 10:57:49;;;;;;;8.20;2.73;;;;;;;;;;5033552;28;20394;-63
2023/12/09 11:00:15;;;;;;;8.33;2.83;;;;;;;;;;5033785;28;20044;-64
2023/12/09 11:02:40;;;;;;;7.47;2.90;;;;;;;;;;5030554;28;20033;-65
2023/12/09 11:05:07;;;;;;;7.63;3.20;;;;;;;;;;5030850;28;20351;-65
2023/12/09 11:07:33;;;;;;;7.27;2.70;;;;;;;;;;5036009;28;20756;-65
2023/12/09 11:09:59;;;;;;;9.73;2.77;;;;;;;;;;5033221;28;20045;-64
2023/12/09 11:12:30;;;;;;;7.83;3.10;;;;;;;;;;5031857;28;20033;-65
2023/12/09 11:14:55;;;;;;;7.03;2.30;;;;;;;;;;5034949;28;20165;-64
2023/12/09 11:17:36;;;;;;;8.87;2.43;;;;;;;;;;5035425;28;20128;-63
2023/12/09 11:20:13;;;;;;;9.13;2.63;;;;;;;;;;5032864;28;20470;-63
2023/12/09 11:22:43;;;;;;;7.63;2.50;;;;;;;;;;5031468;28;20033;-64
2023/12/09 11:25:10;;;;;;;8.17;2.83;;;;;;;;;;5034931;28;20110;-65
2023/12/09 11:27:37;;;;;;;7.00;2.17;;;;;;;;;;5034338;28;20104;-65
2023/12/09 11:30:03;;;;;;;8.57;2.60;;;;;;;;;;5035104;28;20049;-64
2023/12/09 11:32:32;;;;;;;7.13;2.00;;;;;;;;;;5031850;28;20055;-65
2023/12/09 11:34:58;;;;;;;15.43;2.60;;;;;;;;;;5035897;28;20036;-65
2023/12/09 11:37:25;;;;;;;9.87;2.93;;;;;;;;;;5031101;28;20109;-67
2023/12/09 11:39:50;;;;;;;8.03;3.00;;;;;;;;;;5033394;28;20036;-66
2023/12/09 11:42:16;;;;;;;11.30;3.20;;;;;;;;;;5032932;28;20355;-66
2023/12/09 11:44:41;;;;;;;9.43;2.53;;;;;;;;;;5035160;28;20227;-68
2023/12/09 11:47:07;;;;;;;9.63;2.93;;;;;;;;;;5032900;28;20026;-67
2023/12/09 11:49:33;;;;;;;10.03;2.77;;;;;;;;;;5035608;28;20205;-67
2023/12/09 11:51:58;;;;;;;10.57;2.67;;;;;;;;;;5035597;28;20466;-66
2023/12/09 11:54:23;;;;;;;9.63;2.77;;;;;;;;;;5035539;28;20068;-66
2023/12/09 11:56:49;;;;;;;7.10;2.60;;;;;;;;;;5032366;28;20030;-66
2023/12/09 11:59:14;;;;;;;9.13;2.57;;;;;;;;;;5029327;28;20412;-66
2023/12/09 12:01:40;;;;;;;9.23;2.90;;;;;;;;;;5030433;28;20025;-67
2023/12/09 12:04:05;;;;;;;11.17;2.80;;;;;;;;;;5034023;28;20033;-66
2023/12/09 12:06:32;;;;;;;10.83;3.00;;;;;;;;;;5033352;28;20028;-67
2023/12/09 12:08:57;;;;;;;10.40;2.80;;;;;;;;;;5028778;28;20036;-67
2023/12/09 12:11:24;;;;;;;10.50;3.10;;;;;;;;;;5027395;28;20108;-66
2023/12/09 12:13:50;;;;;;;8.33;2.93;;;;;;;;;;5031511;28;20497;-66
2023/12/09 12:16:15;;;;;;;9.83;3.07;;;;;;;;;;5030672;28;20069;-67
2023/12/09 12:18:40;;;;;;;7.33;2.93;;;;;;;;;;5031150;28;20037;-66
2023/12/09 12:21:06;;;;;;;10.90;3.17;;;;;;;;;;5029749;28;20028;-66
2023/12/09 12:23:31;;;;;;;12.07;3.20;;;;;;;;;;5032930;28;20049;-66
2023/12/09 12:25:57;;;;;;;8.10;2.87;;;;;;;;;;5040077;28;20032;-66
2023/12/09 12:28:22;;;;;;;12.90;2.93;;;;;;;;;;5038396;28;20033;-67
2023/12/09 12:30:51;;;;;;;8.80;2.77;;;;;;;;;;5038495;28;20108;-67
2023/12/09 12:33:19;;;;;;;7.47;2.97;;;;;;;;;;5038995;28;20025;-67
2023/12/09 12:35:44;;;;;;;6.97;2.70;;;;;;;;;;5038064;28;20025;-67
2023/12/09 12:38:10;;;;;;;6.67;2.43;;;;;;;;;;5041913;28;20500;-66
2023/12/09 12:40:36;;;;;;;7.63;2.60;;;;;;;;;;5039754;28;20500;-66
2023/12/09 12:43:03;;;;;;;7.97;3.07;;;;;;;;;;5040883;28;20032;-67
2023/12/09 12:45:30;;;;;;;5.70;1.93;;;;;;;;;;5039658;28;20036;-66
2023/12/09 12:47:55;;;;;;;12.83;2.90;;;;;;;;;;5039277;28;20025;-67
2023/12/09 12:50:21;;;;;;;10.70;2.43;;;;;;;;;;5039452;28;20048;-67
2023/12/09 12:52:46;;;;;;;8.07;2.37;;;;;;;;;;5041061;28;20036;-66
2023/12/09 12:55:15;;;;;;;7.93;2.50;;;;;;;;;;5040963;28;20042;-66
2023/12/09 12:57:41;;;;;;;5.60;1.97;;;;;;;;;;5037720;28;20108;-66
2023/12/09 13:00:11;;;;;;;5.77;2.10;;;;;;;;;;5040024;28;20527;-66
2023/12/09 13:02:37;;;;;;;9.20;2.63;;;;;;;;;;5039726;28;20053;-66
2023/12/09 13:05:02;;;;;;;8.27;2.20;;;;;;;;;;5041619;28;20029;-66
2023/12/09 13:07:28;;;;;;;8.30;2.70;;;;;;;;;;5037517;28;20378;-66
2023/12/09 13:09:53;;;;;;;7.47;2.20;;;;;;;;;;5034588;28;20055;-66
2023/12/09 13:12:19;;;;;;;8.97;2.37;;;;;;;;;;5043728;28;20053;-68
2023/12/09 13:14:44;;;;;;;6.40;2.97;;;;;;;;;;5039741;28;20046;-66
2023/12/09 13:17:09;;;;;;;7.43;2.13;;;;;;;;;;5036674;28;20779;-66
2023/12/09 13:19:34;;;;;;;9.77;2.27;;;;;;;;;;5035647;28;20029;-66
2023/12/09 13:22:00;;;;;;;9.10;2.30;;;;;;;;;;5035157;28;20555;-65
2023/12/09 13:24:25;;;;;;;3.17;1.40;;;;;;;;;;5041092;28;20108;-65
2023/12/09 13:26:51;;;;;;;6.67;2.07;;;;;;;;;;5035788;28;20030;-65
2023/12/09 13:29:16;;;;;;;7.17;1.80;;;;;;;;;;5031303;28;20033;-65
2023/12/09 13:31:41;;;;;;;6.87;2.37;;;;;;;;;;5038193;28;20469;-64
2023/12/09 13:34:07;;;;;;;4.97;2.00;;;;;;;;;;5041273;28;20021;-65
2023/12/09 13:36:33;;;;;;;5.77;1.90;;;;;;;;;;5038325;28;20056;-65
2023/12/09 13:38:58;;;;;;;6.73;2.20;;;;;;;;;;5032895;28;20431;-65
2023/12/09 13:41:23;;;;;;;3.87;1.67;;;;;;;;;;5033171;28;20131;-65
2023/12/09 13:43:49;;;;;;;5.17;1.50;;;;;;;;;;5035760;28;20028;-65
2023/12/09 13:46:14;;;;;;;8.43;1.50;;;;;;;;;;5034575;28;20033;-65
2023/12/09 13:48:39;;;;;;;3.87;1.50;;;;;;;;;;5037057;28;20041;-65
2023/12/09 13:51:08;;;;;;;4.43;1.77;;;;;;;;;;5033816;28;20483;-65
2023/12/09 13:53:33;;;;;;;6.03;1.67;;;;;;;;;;5036715;28;20636;-61
2023/12/09 13:55:59;;;;;;;5.73;2.07;;;;;;;;;;5038961;28;20033;-62
2023/12/09 13:58:24;;;;;;;5.60;1.70;;;;;;;;;;5040148;28;20033;-64
2023/12/09 14:00:49;;;;;;;11.93;2.23;;;;;;;;;;5034319;28;20071;-63
2023/12/09 14:03:14;;;;;;;27.53;10.30;;;;;;;;;;5036515;28;20033;-62
2023/12/09 14:05:40;;;;;;;6.10;1.73;;;;;;;;;;5037328;28;20061;-63
2023/12/09 14:08:06;;;;;;;7.13;1.53;;;;;;;;;;5033175;28;20470;-62
2023/12/09 14:10:31;;;;;;;6.10;2.30;;;;;;;;;;5038067;28;20719;-62
2023/12/09 14:12:56;;;;;;;5.47;1.70;;;;;;;;;;5033589;28;20060;-62